sensor_id;sensor_type;location;lat;lon;timestamp;pressure;altitude;pressure_sealevel;temperature;humidity
48862;BME280;34681;49.188;-0.374;2023-05-27T00:00:50;102333.63;;;14.43;74.44
48862;BME280;34681;49.188;-0.374;2023-05-27T00:03:15;102322.19;;;14.27;75.44
48862;BME280;34681;49.188;-0.374;2023-05-27T00:05:41;102325.22;;;14.24;75.61
48862;BME280;34681;49.188;-0.374;2023-05-27T00:08:06;102322.19;;;14.27;75.57
48862;BME280;34681;49.188;-0.374;2023-05-27T00:10:31;102327.03;;;14.34;75.37
48862;BME280;34681;49.188;-0.374;2023-05-27T00:12:57;102318.09;;;14.42;75.12
48862;BME280;34681;49.188;-0.374;2023-05-27T00:15:22;102315.75;;;14.38;75.07
48862;BME280;34681;49.188;-0.374;2023-05-27T00:17:48;102315.88;;;14.36;75.11
48862;BME280;34681;49.188;-0.374;2023-05-27T00:20:15;102306.41;;;14.29;75.51
48862;BME280;34681;49.188;-0.374;2023-05-27T00:22:41;102309.16;;;14.29;75.39
48862;BME280;34681;49.188;-0.374;2023-05-27T00:25:07;102304.94;;;14.25;76.04
48862;BME280;34681;49.188;-0.374;2023-05-27T00:27:32;102297.19;;;14.19;75.82
48862;BME280;34681;49.188;-0.374;2023-05-27T00:29:57;102294.31;;;14.20;75.87
48862;BME280;34681;49.188;-0.374;2023-05-27T00:32:23;102295.19;;;14.21;75.81
48862;BME280;34681;49.188;-0.374;2023-05-27T00:34:48;102288.13;;;14.28;75.50
48862;BME280;34681;49.188;-0.374;2023-05-27T00:37:13;102301.97;;;14.17;75.85
48862;BME280;34681;49.188;-0.374;2023-05-27T00:39:39;102295.31;;;14.19;75.97
48862;BME280;34681;49.188;-0.374;2023-05-27T00:42:06;102294.59;;;14.17;75.96
48862;BME280;34681;49.188;-0.374;2023-05-27T00:44:32;102292.75;;;14.06;76.16
48862;BME280;34681;49.188;-0.374;2023-05-27T00:46:57;102294.09;;;14.12;76.35
48862;BME280;34681;49.188;-0.374;2023-05-27T00:49:23;102283.22;;;14.11;76.16
48862;BME280;34681;49.188;-0.374;2023-05-27T00:51:50;102281.94;;;14.15;76.10
48862;BME280;34681;49.188;-0.374;2023-05-27T00:54:16;102274.91;;;14.22;75.55
48862;BME280;34681;49.188;-0.374;2023-05-27T00:56:41;102264.34;;;14.06;76.17
48862;BME280;34681;49.188;-0.374;2023-05-27T00:59:07;102269.47;;;14.11;76.05
48862;BME280;34681;49.188;-0.374;2023-05-27T01:01:32;102266.53;;;14.23;75.24
48862;BME280;34681;49.188;-0.374;2023-05-27T01:04:02;102270.53;;;13.98;76.13
48862;BME280;34681;49.188;-0.374;2023-05-27T01:12:02;102257.44;;;13.91;76.63
48862;BME280;34681;49.188;-0.374;2023-05-27T01:14:33;102261.34;;;13.77;77.02
48862;BME280;34681;49.188;-0.374;2023-05-27T01:17:01;102258.09;;;13.83;76.69
48862;BME280;34681;49.188;-0.374;2023-05-27T01:19:41;102251.88;;;14.02;76.16
48862;BME280;34681;49.188;-0.374;2023-05-27T01:22:11;102247.38;;;14.01;75.73
48862;BME280;34681;49.188;-0.374;2023-05-27T01:24:37;102244.72;;;13.78;76.70
48862;BME280;34681;49.188;-0.374;2023-05-27T01:27:03;102251.66;;;13.94;76.32
48862;BME280;34681;49.188;-0.374;2023-05-27T01:29:29;102253.63;;;14.03;75.88
48862;BME280;34681;49.188;-0.374;2023-05-27T01:32:28;102247.50;;;13.99;75.83
48862;BME280;34681;49.188;-0.374;2023-05-27T01:35:11;102244.63;;;14.01;75.82
48862;BME280;34681;49.188;-0.374;2023-05-27T01:37:41;102246.09;;;14.05;75.28
48862;BME280;34681;49.188;-0.374;2023-05-27T01:40:08;102242.81;;;14.11;74.96
48862;BME280;34681;49.188;-0.374;2023-05-27T01:42:39;102245.34;;;14.03;75.48
48862;BME280;34681;49.188;-0.374;2023-05-27T01:45:07;102241.84;;;14.22;74.22
48862;BME280;34681;49.188;-0.374;2023-05-27T01:47:33;102240.34;;;14.08;74.38
48862;BME280;34681;49.188;-0.374;2023-05-27T01:49:59;102241.56;;;14.15;74.42
48862;BME280;34681;49.188;-0.374;2023-05-27T01:52:25;102241.66;;;14.14;73.71
48862;BME280;34681;49.188;-0.374;2023-05-27T01:54:51;102248.59;;;14.29;73.14
48862;BME280;34681;49.188;-0.374;2023-05-27T01:57:16;102242.44;;;14.16;73.20
48862;BME280;34681;49.188;-0.374;2023-05-27T01:59:42;102248.44;;;14.30;72.65
48862;BME280;34681;49.188;-0.374;2023-05-27T02:02:07;102244.03;;;14.18;72.75
48862;BME280;34681;49.188;-0.374;2023-05-27T02:04:33;102238.25;;;14.21;72.75
48862;BME280;34681;49.188;-0.374;2023-05-27T02:06:58;102229.13;;;14.42;72.12
48862;BME280;34681;49.188;-0.374;2023-05-27T02:09:24;102234.09;;;14.27;72.18
48862;BME280;34681;49.188;-0.374;2023-05-27T02:11:50;102233.59;;;14.22;72.51
48862;BME280;34681;49.188;-0.374;2023-05-27T02:14:16;102236.69;;;14.28;72.25
48862;BME280;34681;49.188;-0.374;2023-05-27T02:16:42;102242.81;;;14.32;72.09
48862;BME280;34681;49.188;-0.374;2023-05-27T02:19:08;102239.06;;;14.33;72.02
48862;BME280;34681;49.188;-0.374;2023-05-27T02:21:34;102231.53;;;14.35;71.79
48862;BME280;34681;49.188;-0.374;2023-05-27T02:24:01;102227.03;;;14.34;71.81
48862;BME280;34681;49.188;-0.374;2023-05-27T02:26:26;102236.16;;;14.14;72.23
48862;BME280;34681;49.188;-0.374;2023-05-27T02:28:51;102226.69;;;14.27;71.77
48862;BME280;34681;49.188;-0.374;2023-05-27T02:31:17;102224.34;;;14.23;71.76
48862;BME280;34681;49.188;-0.374;2023-05-27T02:33:42;102229.66;;;14.36;71.34
48862;BME280;34681;49.188;-0.374;2023-05-27T02:36:08;102222.84;;;14.40;70.85
48862;BME280;34681;49.188;-0.374;2023-05-27T02:38:33;102232.75;;;14.42;70.40
48862;BME280;34681;49.188;-0.374;2023-05-27T02:40:59;102216.28;;;14.10;71.93
48862;BME280;34681;49.188;-0.374;2023-05-27T02:43:24;102219.03;;;14.31;71.26
48862;BME280;34681;49.188;-0.374;2023-05-27T02:45:49;102220.38;;;14.37;70.89
48862;BME280;34681;49.188;-0.374;2023-05-27T02:48:15;102222.25;;;14.36;71.07
48862;BME280;34681;49.188;-0.374;2023-05-27T02:50:40;102208.28;;;14.28;70.96
48862;BME280;34681;49.188;-0.374;2023-05-27T02:53:05;102207.56;;;14.26;70.97
48862;BME280;34681;49.188;-0.374;2023-05-27T02:55:31;102210.72;;;14.21;71.31
48862;BME280;34681;49.188;-0.374;2023-05-27T02:57:56;102208.81;;;14.22;71.05
48862;BME280;34681;49.188;-0.374;2023-05-27T03:00:22;102210.25;;;14.16;71.27
48862;BME280;34681;49.188;-0.374;2023-05-27T03:02:47;102207.34;;;13.97;71.23
48862;BME280;34681;49.188;-0.374;2023-05-27T03:05:13;102207.34;;;13.97;71.04
48862;BME280;34681;49.188;-0.374;2023-05-27T03:07:38;102212.25;;;13.93;71.22
48862;BME280;34681;49.188;-0.374;2023-05-27T03:10:06;102207.50;;;13.95;71.43
48862;BME280;34681;49.188;-0.374;2023-05-27T03:12:32;102209.78;;;14.11;70.79
48862;BME280;34681;49.188;-0.374;2023-05-27T03:14:57;102205.88;;;14.14;70.41
48862;BME280;34681;49.188;-0.374;2023-05-27T03:17:23;102208.31;;;14.07;70.75
48862;BME280;34681;49.188;-0.374;2023-05-27T03:19:48;102212.25;;;14.14;70.37
48862;BME280;34681;49.188;-0.374;2023-05-27T03:22:13;102217.91;;;14.13;70.53
48862;BME280;34681;49.188;-0.374;2023-05-27T03:24:39;102210.66;;;14.12;70.23
48862;BME280;34681;49.188;-0.374;2023-05-27T03:27:05;102206.34;;;13.98;70.53
48862;BME280;34681;49.188;-0.374;2023-05-27T03:29:31;102213.34;;;14.02;70.76
48862;BME280;34681;49.188;-0.374;2023-05-27T03:31:56;102204.06;;;14.03;70.37
48862;BME280;34681;49.188;-0.374;2023-05-27T03:34:22;102200.31;;;14.04;70.63
48862;BME280;34681;49.188;-0.374;2023-05-27T03:36:47;102187.22;;;14.17;70.14
48862;BME280;34681;49.188;-0.374;2023-05-27T03:39:15;102191.09;;;14.36;69.42
48862;BME280;34681;49.188;-0.374;2023-05-27T03:41:41;102188.78;;;14.10;69.89
48862;BME280;34681;49.188;-0.374;2023-05-27T03:44:06;102196.16;;;14.10;69.93
48862;BME280;34681;49.188;-0.374;2023-05-27T03:46:32;102186.28;;;14.28;69.49
48862;BME280;34681;49.188;-0.374;2023-05-27T03:48:57;102190.56;;;14.21;69.46
48862;BME280;34681;49.188;-0.374;2023-05-27T03:51:23;102190.03;;;14.06;69.90
48862;BME280;34681;49.188;-0.374;2023-05-27T03:53:48;102187.34;;;13.95;70.21
48862;BME280;34681;49.188;-0.374;2023-05-27T03:56:14;102190.72;;;13.98;69.76
48862;BME280;34681;49.188;-0.374;2023-05-27T03:58:39;102193.41;;;14.10;69.51
48862;BME280;34681;49.188;-0.374;2023-05-27T04:01:05;102194.00;;;13.92;69.85
48862;BME280;34681;49.188;-0.374;2023-05-27T04:03:31;102188.09;;;13.97;69.59
48862;BME280;34681;49.188;-0.374;2023-05-27T04:05:57;102181.13;;;13.93;69.76
48862;BME280;34681;49.188;-0.374;2023-05-27T04:08:23;102185.56;;;13.84;69.96
48862;BME280;34681;49.188;-0.374;2023-05-27T04:10:52;102182.41;;;14.10;69.42
48862;BME280;34681;49.188;-0.374;2023-05-27T04:13:18;102192.72;;;14.17;68.89
48862;BME280;34681;49.188;-0.374;2023-05-27T04:15:43;102184.59;;;13.95;69.41
48862;BME280;34681;49.188;-0.374;2023-05-27T04:18:09;102194.97;;;14.23;68.86
48862;BME280;34681;49.188;-0.374;2023-05-27T04:20:38;102187.53;;;14.45;67.93
48862;BME280;34681;49.188;-0.374;2023-05-27T04:23:06;102189.34;;;14.34;67.96
48862;BME280;34681;49.188;-0.374;2023-05-27T04:25:31;102186.59;;;14.34;68.31
48862;BME280;34681;49.188;-0.374;2023-05-27T04:27:56;102177.78;;;14.61;67.33
48862;BME280;34681;49.188;-0.374;2023-05-27T04:30:22;102188.97;;;14.70;67.10
48862;BME280;34681;49.188;-0.374;2023-05-27T04:32:48;102183.31;;;14.41;67.79
48862;BME280;34681;49.188;-0.374;2023-05-27T04:35:13;102184.38;;;14.28;68.00
48862;BME280;34681;49.188;-0.374;2023-05-27T04:37:39;102175.44;;;14.36;67.85
48862;BME280;34681;49.188;-0.374;2023-05-27T04:40:06;102181.34;;;14.52;67.29
48862;BME280;34681;49.188;-0.374;2023-05-27T04:42:33;102182.78;;;14.87;66.90
48862;BME280;34681;49.188;-0.374;2023-05-27T04:45:04;102198.41;;;15.17;65.67
48862;BME280;34681;49.188;-0.374;2023-05-27T04:47:31;102189.88;;;14.80;66.21
48862;BME280;34681;49.188;-0.374;2023-05-27T04:49:56;102199.41;;;15.06;65.66
48862;BME280;34681;49.188;-0.374;2023-05-27T04:52:22;102192.09;;;14.96;65.88
48862;BME280;34681;49.188;-0.374;2023-05-27T04:54:49;102193.78;;;15.17;65.65
48862;BME280;34681;49.188;-0.374;2023-05-27T04:57:15;102190.13;;;15.07;65.35
48862;BME280;34681;49.188;-0.374;2023-05-27T04:59:44;102192.44;;;15.12;65.67
48862;BME280;34681;49.188;-0.374;2023-05-27T05:02:33;102181.88;;;15.27;64.99
48862;BME280;34681;49.188;-0.374;2023-05-27T05:05:06;102187.56;;;15.44;64.57
48862;BME280;34681;49.188;-0.374;2023-05-27T05:07:32;102187.91;;;15.90;62.84
48862;BME280;34681;49.188;-0.374;2023-05-27T05:09:58;102190.28;;;16.41;61.50
48862;BME280;34681;49.188;-0.374;2023-05-27T05:12:25;102190.34;;;16.69;60.66
48862;BME280;34681;49.188;-0.374;2023-05-27T05:14:51;102192.69;;;18.51;57.20
48862;BME280;34681;49.188;-0.374;2023-05-27T05:17:17;102197.28;;;19.37;54.24
48862;BME280;34681;49.188;-0.374;2023-05-27T05:19:44;102200.88;;;19.88;52.61
48862;BME280;34681;49.188;-0.374;2023-05-27T05:22:10;102195.13;;;20.22;51.66
48862;BME280;34681;49.188;-0.374;2023-05-27T05:24:36;102195.25;;;21.48;48.76
48862;BME280;34681;49.188;-0.374;2023-05-27T05:27:01;102204.38;;;21.65;47.00
48862;BME280;34681;49.188;-0.374;2023-05-27T05:29:26;102199.00;;;21.86;46.81
48862;BME280;34681;49.188;-0.374;2023-05-27T05:31:52;102199.66;;;21.88;45.67
48862;BME280;34681;49.188;-0.374;2023-05-27T05:34:17;102198.75;;;21.96;45.97
48862;BME280;34681;49.188;-0.374;2023-05-27T05:36:42;102201.06;;;20.91;47.50
48862;BME280;34681;49.188;-0.374;2023-05-27T05:39:08;102199.13;;;20.11;50.14
48862;BME280;34681;49.188;-0.374;2023-05-27T05:41:33;102202.41;;;19.82;50.62
48862;BME280;34681;49.188;-0.374;2023-05-27T05:43:58;102194.94;;;19.67;51.10
48862;BME280;34681;49.188;-0.374;2023-05-27T05:46:24;102188.88;;;18.70;52.95
48862;BME280;34681;49.188;-0.374;2023-05-27T05:48:52;102195.06;;;17.77;56.08
48862;BME280;34681;49.188;-0.374;2023-05-27T05:51:18;102191.41;;;17.58;57.00
48862;BME280;34681;49.188;-0.374;2023-05-27T05:53:44;102200.78;;;18.19;55.79
48862;BME280;34681;49.188;-0.374;2023-05-27T05:56:09;102194.69;;;20.74;48.53
48862;BME280;34681;49.188;-0.374;2023-05-27T05:58:34;102196.72;;;22.12;45.45
48862;BME280;34681;49.188;-0.374;2023-05-27T06:01:00;102205.44;;;23.36;42.92
48862;BME280;34681;49.188;-0.374;2023-05-27T06:03:26;102199.88;;;23.72;42.08
48862;BME280;34681;49.188;-0.374;2023-05-27T06:05:52;102196.13;;;24.57;40.40
48862;BME280;34681;49.188;-0.374;2023-05-27T06:08:17;102202.16;;;24.88;39.55
48862;BME280;34681;49.188;-0.374;2023-05-27T06:10:42;102206.38;;;25.60;38.84
48862;BME280;34681;49.188;-0.374;2023-05-27T06:13:08;102197.47;;;27.35;36.61
48862;BME280;34681;49.188;-0.374;2023-05-27T06:15:36;102207.63;;;26.52;36.02
48862;BME280;34681;49.188;-0.374;2023-05-27T06:18:02;102202.47;;;27.71;35.10
48862;BME280;34681;49.188;-0.374;2023-05-27T06:20:27;102196.38;;;27.36;34.42
48862;BME280;34681;49.188;-0.374;2023-05-27T06:22:52;102193.00;;;27.73;34.81
48862;BME280;34681;49.188;-0.374;2023-05-27T06:25:18;102195.91;;;28.66;33.63
48862;BME280;34681;49.188;-0.374;2023-05-27T06:27:43;102200.66;;;29.08;32.13
48862;BME280;34681;49.188;-0.374;2023-05-27T06:30:08;102201.50;;;30.06;30.51
48862;BME280;34681;49.188;-0.374;2023-05-27T06:32:34;102189.06;;;30.48;30.64
48862;BME280;34681;49.188;-0.374;2023-05-27T06:35:00;102185.13;;;30.61;29.10
48862;BME280;34681;49.188;-0.374;2023-05-27T06:37:25;102187.69;;;29.86;30.14
48862;BME280;34681;49.188;-0.374;2023-05-27T06:39:50;102180.34;;;30.38;30.09
48862;BME280;34681;49.188;-0.374;2023-05-27T06:42:16;102183.03;;;29.50;30.48
48862;BME280;34681;49.188;-0.374;2023-05-27T06:44:41;102175.78;;;30.14;29.94
48862;BME280;34681;49.188;-0.374;2023-05-27T06:47:07;102177.41;;;30.68;28.92
48862;BME280;34681;49.188;-0.374;2023-05-27T06:49:32;102180.81;;;31.86;26.83
48862;BME280;34681;49.188;-0.374;2023-05-27T06:51:57;102181.06;;;31.04;26.17
48862;BME280;34681;49.188;-0.374;2023-05-27T06:54:23;102183.03;;;31.55;27.73
48862;BME280;34681;49.188;-0.374;2023-05-27T06:56:48;102178.13;;;32.97;26.01
48862;BME280;34681;49.188;-0.374;2023-05-27T06:59:14;102176.47;;;33.01;27.05
48862;BME280;34681;49.188;-0.374;2023-05-27T07:01:39;102173.59;;;32.96;25.00
48862;BME280;34681;49.188;-0.374;2023-05-27T07:04:04;102172.16;;;31.64;26.36
48862;BME280;34681;49.188;-0.374;2023-05-27T07:06:30;102171.53;;;30.82;27.40
48862;BME280;34681;49.188;-0.374;2023-05-27T07:08:55;102174.81;;;30.43;28.35
48862;BME280;34681;49.188;-0.374;2023-05-27T07:11:20;102174.97;;;30.72;27.81
48862;BME280;34681;49.188;-0.374;2023-05-27T07:13:46;102171.81;;;31.89;27.35
48862;BME280;34681;49.188;-0.374;2023-05-27T07:16:12;102176.94;;;32.76;25.26
48862;BME280;34681;49.188;-0.374;2023-05-27T07:18:37;102170.59;;;33.08;25.94
48862;BME280;34681;49.188;-0.374;2023-05-27T07:21:03;102169.41;;;34.28;24.28
48862;BME280;34681;49.188;-0.374;2023-05-27T07:23:28;102165.28;;;35.41;23.32
48862;BME280;34681;49.188;-0.374;2023-05-27T07:25:54;102164.03;;;35.16;23.10
48862;BME280;34681;49.188;-0.374;2023-05-27T07:28:19;102155.38;;;36.81;21.52
48862;BME280;34681;49.188;-0.374;2023-05-27T07:30:44;102154.81;;;35.57;22.37
48862;BME280;34681;49.188;-0.374;2023-05-27T07:33:10;102143.84;;;32.98;24.85
48862;BME280;34681;49.188;-0.374;2023-05-27T07:35:35;102149.16;;;34.94;23.75
48862;BME280;34681;49.188;-0.374;2023-05-27T07:38:01;102141.94;;;35.34;22.80
48862;BME280;34681;49.188;-0.374;2023-05-27T07:40:27;102148.22;;;34.88;22.98
48862;BME280;34681;49.188;-0.374;2023-05-27T07:42:53;102145.50;;;36.17;21.37
48862;BME280;34681;49.188;-0.374;2023-05-27T07:45:18;102146.44;;;38.12;20.53
48862;BME280;34681;49.188;-0.374;2023-05-27T07:47:43;102150.44;;;39.65;19.58
48862;BME280;34681;49.188;-0.374;2023-05-27T07:50:09;102142.00;;;38.30;19.81
48862;BME280;34681;49.188;-0.374;2023-05-27T07:52:34;102146.63;;;37.42;20.74
48862;BME280;34681;49.188;-0.374;2023-05-27T07:55:00;102147.28;;;38.12;20.38
48862;BME280;34681;49.188;-0.374;2023-05-27T07:57:25;102141.97;;;38.88;19.22
48862;BME280;34681;49.188;-0.374;2023-05-27T07:59:50;102158.25;;;40.48;18.40
48862;BME280;34681;49.188;-0.374;2023-05-27T08:02:16;102140.09;;;39.02;19.01
48862;BME280;34681;49.188;-0.374;2023-05-27T08:04:41;102137.56;;;38.13;19.63
48862;BME280;34681;49.188;-0.374;2023-05-27T08:07:08;102138.41;;;39.63;18.15
48862;BME280;34681;49.188;-0.374;2023-05-27T08:09:34;102132.84;;;40.69;18.00
48862;BME280;34681;49.188;-0.374;2023-05-27T08:11:59;102126.78;;;39.92;18.13
48862;BME280;34681;49.188;-0.374;2023-05-27T08:14:26;102127.16;;;40.36;18.17
48862;BME280;34681;49.188;-0.374;2023-05-27T08:16:53;102114.41;;;39.77;18.45
48862;BME280;34681;49.188;-0.374;2023-05-27T08:19:18;102103.59;;;37.78;19.76
48862;BME280;34681;49.188;-0.374;2023-05-27T08:21:43;102118.56;;;37.99;20.35
48862;BME280;34681;49.188;-0.374;2023-05-27T08:24:09;102110.66;;;38.19;19.92
48862;BME280;34681;49.188;-0.374;2023-05-27T08:26:34;102105.25;;;37.39;20.44
48862;BME280;34681;49.188;-0.374;2023-05-27T08:29:00;102104.31;;;36.95;20.87
48862;BME280;34681;49.188;-0.374;2023-05-27T08:31:25;102106.16;;;36.24;21.10
48862;BME280;34681;49.188;-0.374;2023-05-27T08:33:50;102106.44;;;38.12;20.29
48862;BME280;34681;49.188;-0.374;2023-05-27T08:36:16;102103.00;;;38.44;19.58
48862;BME280;34681;49.188;-0.374;2023-05-27T08:38:44;102098.47;;;38.38;19.75
48862;BME280;34681;49.188;-0.374;2023-05-27T08:41:09;102097.47;;;39.24;19.61
48862;BME280;34681;49.188;-0.374;2023-05-27T08:43:35;102094.78;;;39.09;19.11
48862;BME280;34681;49.188;-0.374;2023-05-27T08:46:01;102092.88;;;37.54;20.53
48862;BME280;34681;49.188;-0.374;2023-05-27T08:48:27;102086.38;;;38.17;20.78
48862;BME280;34681;49.188;-0.374;2023-05-27T08:50:52;102094.28;;;38.83;19.93
48862;BME280;34681;49.188;-0.374;2023-05-27T08:53:18;102081.75;;;37.08;20.78
48862;BME280;34681;49.188;-0.374;2023-05-27T08:55:44;102085.13;;;37.10;21.86
48862;BME280;34681;49.188;-0.374;2023-05-27T08:58:12;102080.75;;;35.36;22.91
48862;BME280;34681;49.188;-0.374;2023-05-27T09:00:37;102073.41;;;33.61;24.81
48862;BME280;34681;49.188;-0.374;2023-05-27T09:03:03;102071.47;;;33.99;24.84
48862;BME280;34681;49.188;-0.374;2023-05-27T09:05:28;102069.19;;;33.96;24.60
48862;BME280;34681;49.188;-0.374;2023-05-27T09:07:54;102066.94;;;31.50;27.08
48862;BME280;34681;49.188;-0.374;2023-05-27T09:10:20;102056.59;;;29.88;29.55
48862;BME280;34681;49.188;-0.374;2023-05-27T09:12:45;102053.56;;;29.48;30.78
48862;BME280;34681;49.188;-0.374;2023-05-27T09:15:12;102052.97;;;29.28;30.56
48862;BME280;34681;49.188;-0.374;2023-05-27T09:17:45;102047.19;;;29.53;30.28
48862;BME280;34681;49.188;-0.374;2023-05-27T09:20:11;102040.03;;;27.98;32.94
48862;BME280;34681;49.188;-0.374;2023-05-27T09:22:38;102049.38;;;27.04;34.69
48862;BME280;34681;49.188;-0.374;2023-05-27T09:25:04;102037.63;;;27.77;33.21
48862;BME280;34681;49.188;-0.374;2023-05-27T09:27:31;102045.50;;;27.62;33.46
48862;BME280;34681;49.188;-0.374;2023-05-27T09:29:58;102026.06;;;28.28;32.59
48862;BME280;34681;49.188;-0.374;2023-05-27T09:32:32;102030.25;;;27.83;32.72
48862;BME280;34681;49.188;-0.374;2023-05-27T09:34:58;102040.22;;;27.47;33.72
48862;BME280;34681;49.188;-0.374;2023-05-27T09:37:26;102028.06;;;26.12;35.60
48862;BME280;34681;49.188;-0.374;2023-05-27T09:40:15;102023.13;;;25.35;37.76
48862;BME280;34681;49.188;-0.374;2023-05-27T09:42:44;102035.84;;;25.37;37.39
48862;BME280;34681;49.188;-0.374;2023-05-27T09:45:20;102033.28;;;25.69;37.76
48862;BME280;34681;49.188;-0.374;2023-05-27T09:47:50;102025.78;;;24.88;38.39
48862;BME280;34681;49.188;-0.374;2023-05-27T09:50:17;102022.47;;;24.65;38.88
48862;BME280;34681;49.188;-0.374;2023-05-27T09:52:43;102022.16;;;24.33;39.96
48862;BME280;34681;49.188;-0.374;2023-05-27T09:55:10;102025.50;;;23.23;41.58
48862;BME280;34681;49.188;-0.374;2023-05-27T09:57:37;102012.47;;;22.37;43.80
48862;BME280;34681;49.188;-0.374;2023-05-27T10:00:04;102009.44;;;22.68;43.27
48862;BME280;34681;49.188;-0.374;2023-05-27T10:02:45;102013.63;;;22.42;43.77
48862;BME280;34681;49.188;-0.374;2023-05-27T10:05:12;102006.28;;;21.97;44.69
48862;BME280;34681;49.188;-0.374;2023-05-27T10:07:39;102015.16;;;22.15;44.86
48862;BME280;34681;49.188;-0.374;2023-05-27T10:10:10;102017.06;;;22.15;45.51
48862;BME280;34681;49.188;-0.374;2023-05-27T10:12:37;102007.16;;;21.45;45.88
48862;BME280;34681;49.188;-0.374;2023-05-27T10:15:03;102014.13;;;21.18;47.00
48862;BME280;34681;49.188;-0.374;2023-05-27T10:17:46;102011.66;;;21.46;47.87
48862;BME280;34681;49.188;-0.374;2023-05-27T10:20:12;102008.53;;;21.64;46.46
48862;BME280;34681;49.188;-0.374;2023-05-27T10:22:46;102003.44;;;21.53;46.73
48862;BME280;34681;49.188;-0.374;2023-05-27T10:25:12;102011.34;;;21.18;46.83
48862;BME280;34681;49.188;-0.374;2023-05-27T10:27:46;102012.69;;;21.68;46.96
48862;BME280;34681;49.188;-0.374;2023-05-27T10:30:12;102000.88;;;21.28;47.75
48862;BME280;34681;49.188;-0.374;2023-05-27T10:32:48;102005.69;;;21.26;50.23
48862;BME280;34681;49.188;-0.374;2023-05-27T10:35:16;101993.78;;;21.41;48.98
48862;BME280;34681;49.188;-0.374;2023-05-27T10:37:43;102004.84;;;21.49;48.50
48862;BME280;34681;49.188;-0.374;2023-05-27T10:40:10;101997.63;;;21.17;49.30
48862;BME280;34681;49.188;-0.374;2023-05-27T10:42:36;101994.03;;;20.85;50.92
48862;BME280;34681;49.188;-0.374;2023-05-27T10:45:08;101996.44;;;20.88;50.26
48862;BME280;34681;49.188;-0.374;2023-05-27T10:47:36;101992.75;;;20.96;50.50
48862;BME280;34681;49.188;-0.374;2023-05-27T10:50:12;101993.50;;;21.13;49.21
48862;BME280;34681;49.188;-0.374;2023-05-27T10:52:39;101992.72;;;20.73;51.18
48862;BME280;34681;49.188;-0.374;2023-05-27T10:55:05;101984.69;;;20.78;50.84
48862;BME280;34681;49.188;-0.374;2023-05-27T10:57:32;101998.44;;;21.02;51.06
48862;BME280;34681;49.188;-0.374;2023-05-27T11:00:02;101987.00;;;20.97;50.70
48862;BME280;34681;49.188;-0.374;2023-05-27T11:02:35;101992.28;;;20.84;51.66
48862;BME280;34681;49.188;-0.374;2023-05-27T11:05:01;101992.19;;;21.23;50.14
48862;BME280;34681;49.188;-0.374;2023-05-27T11:07:36;101998.28;;;20.73;51.96
48862;BME280;34681;49.188;-0.374;2023-05-27T11:10:01;101992.38;;;20.68;51.47
48862;BME280;34681;49.188;-0.374;2023-05-27T11:12:27;101992.88;;;20.40;52.79
48862;BME280;34681;49.188;-0.374;2023-05-27T11:14:55;101984.94;;;20.91;51.72
48862;BME280;34681;49.188;-0.374;2023-05-27T11:17:22;101981.09;;;20.92;51.50
48862;BME280;34681;49.188;-0.374;2023-05-27T11:19:48;101981.06;;;20.78;51.42
48862;BME280;34681;49.188;-0.374;2023-05-27T11:22:15;101983.28;;;20.51;52.30
48862;BME280;34681;49.188;-0.374;2023-05-27T11:24:42;101979.75;;;20.88;51.63
48862;BME280;34681;49.188;-0.374;2023-05-27T11:27:12;101979.09;;;20.86;51.48
48862;BME280;34681;49.188;-0.374;2023-05-27T11:29:39;101977.47;;;20.69;52.38
48862;BME280;34681;49.188;-0.374;2023-05-27T11:32:05;101970.41;;;20.81;52.96
48862;BME280;34681;49.188;-0.374;2023-05-27T11:34:33;101960.03;;;20.75;53.68
48862;BME280;34681;49.188;-0.374;2023-05-27T11:37:03;101976.66;;;20.83;52.65
48862;BME280;34681;49.188;-0.374;2023-05-27T11:39:29;101960.69;;;20.15;53.23
48862;BME280;34681;49.188;-0.374;2023-05-27T11:41:55;101975.41;;;20.24;53.03
48862;BME280;34681;49.188;-0.374;2023-05-27T11:44:22;101969.09;;;19.99;54.77
48862;BME280;34681;49.188;-0.374;2023-05-27T11:46:49;101966.06;;;20.16;53.64
48862;BME280;34681;49.188;-0.374;2023-05-27T11:49:16;101970.06;;;20.14;54.68
48862;BME280;34681;49.188;-0.374;2023-05-27T11:51:44;101955.53;;;20.04;55.83
48862;BME280;34681;49.188;-0.374;2023-05-27T11:54:21;101964.69;;;20.12;54.42
48862;BME280;34681;49.188;-0.374;2023-05-27T11:56:48;101956.44;;;20.27;54.61
48862;BME280;34681;49.188;-0.374;2023-05-27T11:59:14;101962.47;;;20.47;54.35
48862;BME280;34681;49.188;-0.374;2023-05-27T12:01:43;101962.41;;;20.86;52.93
48862;BME280;34681;49.188;-0.374;2023-05-27T12:04:08;101959.00;;;20.45;53.36
48862;BME280;34681;49.188;-0.374;2023-05-27T12:06:33;101953.75;;;20.50;54.08
48862;BME280;34681;49.188;-0.374;2023-05-27T12:08:59;101970.84;;;20.31;54.21
48862;BME280;34681;49.188;-0.374;2023-05-27T12:11:25;101958.59;;;20.17;55.04
48862;BME280;34681;49.188;-0.374;2023-05-27T12:13:53;101956.81;;;20.24;55.45
48862;BME280;34681;49.188;-0.374;2023-05-27T12:16:18;101950.50;;;19.99;55.88
48862;BME280;34681;49.188;-0.374;2023-05-27T12:18:44;101952.38;;;20.07;56.36
48862;BME280;34681;49.188;-0.374;2023-05-27T12:21:10;101948.78;;;20.37;54.94
48862;BME280;34681;49.188;-0.374;2023-05-27T12:23:35;101952.59;;;20.44;54.88
48862;BME280;34681;49.188;-0.374;2023-05-27T12:26:01;101944.41;;;20.35;54.80
48862;BME280;34681;49.188;-0.374;2023-05-27T12:28:26;101951.03;;;20.34;55.35
48862;BME280;34681;49.188;-0.374;2023-05-27T12:30:52;101941.75;;;20.10;55.71
48862;BME280;34681;49.188;-0.374;2023-05-27T12:33:17;101937.25;;;20.09;56.45
48862;BME280;34681;49.188;-0.374;2023-05-27T12:35:43;101941.47;;;20.05;56.65
48862;BME280;34681;49.188;-0.374;2023-05-27T12:38:08;101938.84;;;20.35;56.70
48862;BME280;34681;49.188;-0.374;2023-05-27T12:40:33;101940.66;;;20.59;56.51
48862;BME280;34681;49.188;-0.374;2023-05-27T12:42:59;101930.00;;;20.70;56.87